Time;durP1;ratioP1;P1;durP2;ratioP2;P2;SDS_P1;SDS_P2;PMS_P1;PMS_P2;Temp;Humidity;BMP_temperature;BMP_pressure;BME280_temperature;BME280_humidity;BME280_pressure;Samples;Min_cycle;Max_cycle;Signal;HPM_P1;HPM_P2
2021/08/14 00:02:45;;;;;;;13.80;12.70;;;23.80;99.90;;;;;;6346583;28;20205;-58
2021/08/14 00:05:49;;;;;;;11.97;11.03;;;23.70;99.90;;;;;;6347054;28;20205;-58
2021/08/14 00:08:54;;;;;;;12.13;11.13;;;23.70;99.90;;;;;;6346492;28;20210;-58
2021/08/14 00:11:57;;;;;;;12.50;11.50;;;23.70;99.90;;;;;;6349367;28;20638;-58
2021/08/14 00:15:00;;;;;;;13.13;12.03;;;23.70;99.90;;;;;;6349750;28;20201;-58
2021/08/14 00:18:04;;;;;;;12.97;11.77;;;23.60;99.90;;;;;;6349143;28;20294;-58
2021/08/14 00:21:07;;;;;;;14.93;12.43;;;23.60;99.90;;;;;;6337196;28;20233;-58
2021/08/14 00:24:12;;;;;;;11.93;10.83;;;23.70;99.90;;;;;;6324350;28;20248;-58
2021/08/14 00:27:15;;;;;;;12.87;11.67;;;23.60;99.90;;;;;;6336236;28;20678;-58
2021/08/14 00:30:19;;;;;;;12.70;11.70;;;23.60;99.90;;;;;;6348659;28;20229;-58
2021/08/14 00:33:22;;;;;;;12.30;11.10;;;23.60;99.90;;;;;;6329073;28;20287;-58
2021/08/14 00:36:25;;;;;;;14.77;13.40;;;23.50;99.90;;;;;;6323581;28;20236;-58
2021/08/14 00:39:30;;;;;;;12.97;11.93;;;23.50;99.90;;;;;;6330553;28;20248;-58
2021/08/14 00:42:33;;;;;;;14.67;13.17;;;23.50;99.90;;;;;;6323652;28;20239;-57
2021/08/14 00:45:40;;;;;;;13.13;12.03;;;23.50;99.90;;;;;;6314214;28;20604;-58
2021/08/14 00:49:03;;;;;;;13.37;12.27;;;23.50;99.90;;;;;;6324102;28;20328;-58
2021/08/14 00:52:07;;;;;;;14.13;13.03;;;23.50;99.90;;;;;;6323604;28;20848;-58
2021/08/14 00:55:12;;;;;;;14.03;12.77;;;23.30;99.90;;;;;;6323918;28;20691;-57
2021/08/14 00:58:15;;;;;;;13.90;12.80;;;23.30;99.90;;;;;;6323377;28;20719;-58
2021/08/14 01:01:21;;;;;;;14.27;12.97;;;23.30;99.90;;;;;;6323628;28;20577;-58
2021/08/14 01:04:25;;;;;;;14.63;13.33;;;23.30;99.90;;;;;;6323636;28;20273;-58
2021/08/14 01:07:28;;;;;;;13.90;12.57;;;23.30;99.90;;;;;;6325780;28;20256;-58
2021/08/14 01:10:32;;;;;;;13.57;12.47;;;23.30;99.90;;;;;;6328550;28;20237;-58
2021/08/14 01:13:36;;;;;;;13.27;12.13;;;23.30;99.90;;;;;;6347108;28;20229;-58
2021/08/14 01:16:39;;;;;;;12.80;11.63;;;23.30;99.90;;;;;;6353609;27;20675;-58
2021/08/14 01:19:42;;;;;;;12.97;11.80;;;23.30;99.90;;;;;;6353739;28;20262;-58
2021/08/14 01:22:45;;;;;;;12.17;11.10;;;23.30;99.90;;;;;;6353612;28;20225;-58
2021/08/14 01:26:03;;;;;;;14.17;12.87;;;23.20;99.90;;;;;;6353767;28;20233;-58
2021/08/14 01:29:08;;;;;;;13.00;11.90;;;23.20;99.90;;;;;;6353630;28;20236;-57
2021/08/14 01:32:11;;;;;;;16.07;14.57;;;23.20;99.90;;;;;;6353344;28;20232;-58
2021/08/14 01:35:15;;;;;;;17.70;16.00;;;23.10;99.90;;;;;;6353732;28;20233;-58
2021/08/14 01:38:18;;;;;;;15.67;14.47;;;23.10;99.90;;;;;;6352841;28;20240;-58
2021/08/14 01:41:23;;;;;;;15.07;13.87;;;23.10;99.90;;;;;;6353489;28;20236;-58
2021/08/14 01:44:29;;;;;;;14.20;12.80;;;23.00;99.90;;;;;;6353005;28;20236;-59
2021/08/14 01:47:32;;;;;;;13.77;12.57;;;23.00;99.90;;;;;;6353150;27;20229;-58
2021/08/14 01:50:35;;;;;;;15.13;13.90;;;22.90;99.90;;;;;;6348350;28;20229;-59
2021/08/14 01:53:38;;;;;;;14.43;13.10;;;22.90;99.90;;;;;;6352871;28;20237;-59
2021/08/14 01:56:41;;;;;;;14.57;13.33;;;23.00;99.90;;;;;;6352663;28;20245;-59
2021/08/14 01:59:46;;;;;;;14.73;13.43;;;23.00;99.90;;;;;;6352562;28;20236;-61
2021/08/14 02:02:49;;;;;;;15.67;14.40;;;23.00;99.90;;;;;;6352679;28;20197;-59
2021/08/14 02:05:53;;;;;;;13.40;12.30;;;22.90;99.90;;;;;;6352891;28;20213;-59
2021/08/14 02:08:57;;;;;;;15.23;13.67;;;22.90;99.90;;;;;;6352804;28;20221;-59
2021/08/14 02:12:00;;;;;;;15.20;13.80;;;23.00;99.90;;;;;;6352276;27;20197;-59
2021/08/14 02:15:06;;;;;;;15.27;13.90;;;22.80;99.90;;;;;;6352384;28;20658;-59
2021/08/14 02:18:10;;;;;;;13.20;12.00;;;22.80;99.90;;;;;;6351863;28;20233;-59
2021/08/14 02:21:13;;;;;;;13.77;12.57;;;22.80;99.90;;;;;;6352635;28;20232;-59
2021/08/14 02:24:16;;;;;;;15.17;13.87;;;22.80;99.90;;;;;;6351863;28;20701;-59
2021/08/14 02:27:19;;;;;;;14.57;13.13;;;22.70;99.90;;;;;;6352141;28;20686;-59
2021/08/14 02:30:24;;;;;;;15.03;13.73;;;22.70;99.90;;;;;;6351930;28;20220;-59
2021/08/14 02:33:27;;;;;;;14.80;13.40;;;22.70;99.90;;;;;;6352275;27;20228;-59
2021/08/14 02:36:30;;;;;;;15.73;14.43;;;22.80;99.90;;;;;;6351541;28;20225;-59
2021/08/14 02:39:33;;;;;;;16.43;14.90;;;22.70;99.90;;;;;;6351620;28;20683;-58
2021/08/14 02:42:42;;;;;;;15.43;13.90;;;22.60;99.90;;;;;;6352204;28;20233;-59
2021/08/14 02:45:46;;;;;;;15.60;14.10;;;22.70;99.90;;;;;;6342916;28;20590;-59
2021/08/14 02:48:49;;;;;;;15.50;14.10;;;22.70;99.90;;;;;;6334662;28;20233;-59
2021/08/14 02:51:53;;;;;;;15.33;13.97;;;22.70;99.90;;;;;;6333604;28;20221;-59
2021/08/14 02:54:56;;;;;;;15.93;14.53;;;22.70;99.90;;;;;;6333486;28;20323;-60
2021/08/14 02:57:59;;;;;;;14.47;13.27;;;22.70;99.90;;;;;;6327537;28;20234;-59
2021/08/14 03:01:04;;;;;;;14.13;12.80;;;22.70;99.90;;;;;;6333564;28;20557;-59
2021/08/14 03:04:08;;;;;;;14.43;13.10;;;22.70;99.90;;;;;;6337428;28;20228;-59
2021/08/14 03:07:11;;;;;;;15.80;14.50;;;22.70;99.90;;;;;;6339444;28;20709;-59
2021/08/14 03:10:16;;;;;;;16.10;14.50;;;22.70;99.90;;;;;;6336130;28;20240;-59
2021/08/14 03:13:19;;;;;;;16.73;15.03;;;22.70;99.90;;;;;;6347098;28;20568;-60
2021/08/14 03:16:24;;;;;;;18.00;16.30;;;22.70;99.90;;;;;;6351001;28;20240;-59
2021/08/14 03:19:27;;;;;;;15.57;14.17;;;22.70;99.90;;;;;;6350922;27;20667;-59
2021/08/14 03:22:30;;;;;;;14.33;13.07;;;22.70;99.90;;;;;;6350624;28;20233;-59
2021/08/14 03:25:33;;;;;;;16.40;14.90;;;22.80;99.90;;;;;;6350610;28;20290;-59
2021/08/14 03:28:36;;;;;;;15.00;13.43;;;22.70;99.90;;;;;;6349926;28;20707;-59
2021/08/14 03:31:41;;;;;;;16.80;15.30;;;22.70;99.90;;;;;;6350000;28;20250;-60
2021/08/14 03:34:44;;;;;;;14.50;13.27;;;22.70;99.90;;;;;;6350534;28;20570;-59
2021/08/14 03:37:49;;;;;;;17.73;15.00;;;22.70;99.90;;;;;;6350360;28;20226;-58
2021/08/14 03:40:52;;;;;;;15.03;13.77;;;22.60;99.90;;;;;;6350510;28;20240;-59
2021/08/14 03:43:55;;;;;;;16.00;14.60;;;22.60;99.90;;;;;;6349670;28;20229;-59
2021/08/14 03:47:00;;;;;;;15.50;13.80;;;22.60;99.90;;;;;;6350295;28;20233;-59
2021/08/14 03:50:04;;;;;;;15.47;13.97;;;22.60;99.90;;;;;;6346607;28;20279;-60
2021/08/14 03:53:07;;;;;;;14.43;13.13;;;22.60;99.90;;;;;;6337072;28;20214;-60
2021/08/14 03:56:10;;;;;;;15.23;13.80;;;22.50;99.90;;;;;;6339200;28;20229;-60
2021/08/14 03:59:13;;;;;;;15.77;14.37;;;22.50;99.90;;;;;;6349631;28;20716;-60
2021/08/14 04:02:18;;;;;;;15.73;14.30;;;22.50;99.90;;;;;;6349495;28;20237;-59
2021/08/14 04:05:21;;;;;;;16.93;14.27;;;22.40;99.90;;;;;;6349976;27;20687;-59
2021/08/14 04:08:25;;;;;;;15.40;14.00;;;22.40;99.90;;;;;;6349518;28;20705;-59
2021/08/14 04:11:28;;;;;;;16.43;15.03;;;22.30;99.90;;;;;;6349771;28;20233;-60
2021/08/14 04:14:31;;;;;;;16.13;14.83;;;22.30;99.90;;;;;;6349491;28;20232;-60
2021/08/14 04:17:36;;;;;;;13.80;12.60;;;22.40;99.90;;;;;;6349451;28;20225;-59
2021/08/14 04:20:39;;;;;;;13.67;12.63;;;22.40;99.90;;;;;;6349468;28;20621;-59
2021/08/14 04:23:42;;;;;;;14.23;12.93;;;22.40;99.90;;;;;;6349115;28;20232;-59
2021/08/14 04:26:46;;;;;;;14.47;13.27;;;22.40;99.90;;;;;;6349284;28;20282;-61
2021/08/14 04:29:49;;;;;;;15.50;14.10;;;22.50;99.90;;;;;;6349163;28;20198;-60
2021/08/14 04:32:53;;;;;;;16.40;15.00;;;22.50;99.90;;;;;;6349855;28;20212;-59
2021/08/14 04:35:57;;;;;;;16.67;15.07;;;22.50;99.90;;;;;;6348938;28;20545;-59
2021/08/14 04:39:00;;;;;;;16.70;13.43;;;22.50;99.90;;;;;;6349509;28;20230;-59
2021/08/14 04:42:04;;;;;;;16.10;14.80;;;22.50;99.90;;;;;;6350678;28;20212;-60
2021/08/14 04:45:09;;;;;;;16.40;14.80;;;22.60;99.90;;;;;;6354800;28;20225;-59
2021/08/14 04:48:13;;;;;;;15.70;14.40;;;22.60;99.90;;;;;;6354360;28;20678;-59
2021/08/14 04:51:17;;;;;;;15.30;14.00;;;22.70;99.90;;;;;;6354261;28;20286;-59
2021/08/14 04:54:20;;;;;;;15.13;13.83;;;22.80;99.90;;;;;;6354770;28;20221;-59
2021/08/14 04:57:23;;;;;;;13.93;12.67;;;22.80;99.90;;;;;;6354325;28;20221;-59
2021/08/14 05:00:26;;;;;;;13.80;12.70;;;22.90;99.90;;;;;;6349848;28;20229;-59
2021/08/14 05:03:31;;;;;;;13.67;12.67;;;22.90;99.90;;;;;;6354273;28;20236;-59
2021/08/14 05:06:34;;;;;;;15.20;13.80;;;22.90;99.90;;;;;;6354314;28;20229;-59
2021/08/14 05:09:37;;;;;;;15.03;13.73;;;23.00;99.90;;;;;;6354038;28;20229;-59
2021/08/14 05:12:40;;;;;;;14.00;12.83;;;23.20;99.90;;;;;;6354181;28;20702;-59
2021/08/14 05:15:43;;;;;;;14.57;13.17;;;23.20;99.90;;;;;;6353493;28;20319;-59
2021/08/14 05:18:48;;;;;;;14.07;12.97;;;23.40;99.90;;;;;;6354103;28;20237;-58
2021/08/14 05:21:51;;;;;;;16.03;14.53;;;23.60;99.90;;;;;;6353357;28;20230;-59
2021/08/14 05:24:54;;;;;;;14.77;13.43;;;23.70;99.90;;;;;;6354023;28;20225;-59
2021/08/14 05:27:57;;;;;;;15.60;13.90;;;23.90;99.90;;;;;;6353605;28;20252;-59
2021/08/14 05:31:00;;;;;;;15.03;13.80;;;24.00;99.90;;;;;;6353613;28;20251;-59
2021/08/14 05:34:05;;;;;;;16.00;14.40;;;24.10;99.90;;;;;;6353299;28;20286;-59
2021/08/14 05:37:08;;;;;;;16.10;14.57;;;24.20;99.90;;;;;;6353144;28;20233;-59
2021/08/14 05:40:13;;;;;;;14.90;13.70;;;24.20;99.90;;;;;;6353245;28;20237;-58
2021/08/14 05:43:16;;;;;;;14.73;13.53;;;24.40;99.90;;;;;;6353063;28;20701;-59
2021/08/14 05:46:19;;;;;;;15.37;14.07;;;24.60;99.90;;;;;;6353177;28;20248;-59
2021/08/14 05:49:23;;;;;;;16.57;14.83;;;24.90;99.90;;;;;;6352980;27;20229;-59
2021/08/14 05:52:26;;;;;;;17.07;15.37;;;25.20;99.90;;;;;;6352621;28;20221;-59
2021/08/14 05:55:30;;;;;;;15.80;14.30;;;25.70;99.90;;;;;;6352937;28;20229;-61
2021/08/14 05:58:33;;;;;;;13.63;12.40;;;26.10;99.90;;;;;;6352671;28;20228;-61
2021/08/14 06:01:36;;;;;;;16.20;14.17;;;26.40;99.90;;;;;;6352810;28;20575;-59
2021/08/14 06:04:41;;;;;;;15.43;14.20;;;26.80;99.90;;;;;;6348583;27;20316;-59
2021/08/14 06:07:47;;;;;;;15.67;14.37;;;27.10;99.90;;;;;;6352506;28;20239;-59
2021/08/14 06:10:50;;;;;;;14.47;13.27;;;27.50;99.90;;;;;;6352821;28;20224;-59
2021/08/14 06:13:53;;;;;;;13.80;12.57;;;28.10;99.90;;;;;;6352123;27;20224;-58
2021/08/14 06:16:56;;;;;;;14.90;13.50;;;28.50;98.50;;;;;;6352463;28;20240;-59
2021/08/14 06:20:00;;;;;;;13.13;12.00;;;28.70;97.80;;;;;;6352260;27;20536;-59
2021/08/14 06:23:04;;;;;;;15.50;14.20;;;29.10;96.70;;;;;;6352263;28;20235;-59
2021/08/14 06:26:07;;;;;;;15.87;14.50;;;29.10;95.90;;;;;;6352401;28;20229;-62
2021/08/14 06:29:10;;;;;;;15.17;13.93;;;29.20;94.70;;;;;;6352068;27;20228;-59
2021/08/14 06:32:13;;;;;;;15.87;14.47;;;29.20;94.10;;;;;;6352289;28;20232;-59
2021/08/14 06:35:18;;;;;;;15.97;14.50;;;29.40;93.90;;;;;;6351692;27;20225;-60
2021/08/14 06:38:21;;;;;;;14.30;13.00;;;29.30;93.50;;;;;;6351692;28;20225;-60
2021/08/14 06:41:24;;;;;;;15.80;14.30;;;29.00;93.90;;;;;;6351548;27;20236;-60
2021/08/14 06:44:28;;;;;;;15.03;13.63;;;29.10;94.30;;;;;;6351713;28;20239;-60
2021/08/14 06:47:31;;;;;;;13.60;12.60;;;29.60;93.40;;;;;;6351476;28;20233;-60
2021/08/14 06:50:35;;;;;;;12.70;11.67;;;29.80;92.80;;;;;;6351746;28;20236;-60
2021/08/14 06:53:38;;;;;;;14.73;13.37;;;29.90;92.30;;;;;;6351418;28;20236;-60
2021/08/14 06:56:41;;;;;;;14.00;12.90;;;30.70;91.90;;;;;;6351188;28;20240;-60
2021/08/14 06:59:45;;;;;;;15.20;13.80;;;31.80;89.70;;;;;;6351045;28;20626;-60
2021/08/14 07:02:48;;;;;;;14.25;12.95;;;33.40;82.80;;;;;;6350848;27;20228;-61
2021/08/14 07:05:54;;;;;;;14.75;13.60;;;34.40;78.60;;;;;;6350891;27;20212;-62
2021/08/14 07:08:57;;;;;;;14.02;12.73;;;35.20;75.20;;;;;;6350893;28;20673;-60
2021/08/14 07:12:00;;;;;;;13.85;12.57;;;35.80;70.60;;;;;;6351127;28;20197;-60
2021/08/14 07:15:06;;;;;;;14.27;13.13;;;35.80;66.80;;;;;;6350794;27;20208;-59
2021/08/14 07:18:09;;;;;;;14.05;13.05;;;35.30;66.60;;;;;;6351636;28;20256;-59
2021/08/14 07:21:14;;;;;;;14.82;13.57;;;34.80;67.50;;;;;;6350982;28;20228;-59
2021/08/14 07:24:17;;;;;;;14.30;13.20;;;35.00;67.40;;;;;;6350868;28;20697;-59
2021/08/14 07:27:21;;;;;;;14.77;13.57;;;34.90;66.50;;;;;;6350339;28;20574;-59
2021/08/14 07:30:24;;;;;;;13.82;12.52;;;34.90;66.70;;;;;;6351064;28;20240;-60
2021/08/14 07:33:27;;;;;;;13.93;12.82;;;35.00;65.50;;;;;;6350419;28;20224;-59
2021/08/14 07:36:31;;;;;;;13.85;12.65;;;35.80;64.70;;;;;;6350546;28;20216;-59
2021/08/14 07:39:35;;;;;;;13.80;12.68;;;36.70;61.40;;;;;;6350362;28;20649;-59
2021/08/14 07:42:38;;;;;;;15.52;13.18;;;37.60;60.20;;;;;;6350388;28;20232;-59
2021/08/14 07:45:41;;;;;;;13.30;12.30;;;38.60;57.50;;;;;;6350376;28;20229;-59
2021/08/14 07:48:44;;;;;;;13.60;12.50;;;39.20;55.10;;;;;;6349907;28;20690;-59
2021/08/14 07:51:49;;;;;;;12.35;11.55;;;39.80;53.10;;;;;;6350183;28;20228;-60
2021/08/14 07:54:52;;;;;;;13.32;12.25;;;40.30;52.00;;;;;;6350103;28;20228;-59
2021/08/14 07:57:55;;;;;;;13.32;12.23;;;40.50;51.40;;;;;;6349827;28;20231;-60
2021/08/14 08:00:58;;;;;;;12.73;11.82;;;40.30;50.90;;;;;;6349842;28;20662;-59
2021/08/14 08:04:01;;;;;;;12.82;11.80;;;39.50;51.00;;;;;;6350026;28;20313;-59
2021/08/14 08:07:06;;;;;;;12.70;11.70;;;39.30;51.90;;;;;;6349557;28;20575;-60
2021/08/14 08:10:12;;;;;;;14.65;13.35;;;40.20;51.00;;;;;;6349861;28;20228;-59
2021/08/14 08:13:15;;;;;;;14.40;13.10;;;40.80;49.00;;;;;;6340524;28;20237;-59
2021/08/14 08:16:19;;;;;;;14.48;13.05;;;40.20;48.70;;;;;;6349571;28;20243;-60
2021/08/14 08:19:22;;;;;;;20.17;13.32;;;39.50;50.40;;;;;;6349439;28;20618;-60
2021/08/14 08:22:26;;;;;;;14.15;12.85;;;38.40;51.90;;;;;;6349464;28;20232;-60
2021/08/14 08:25:30;;;;;;;13.25;12.15;;;37.30;54.00;;;;;;6349550;28;20225;-60
2021/08/14 08:28:33;;;;;;;12.77;11.63;;;36.70;54.70;;;;;;6349407;28;20290;-60
2021/08/14 08:31:36;;;;;;;14.68;13.43;;;36.50;55.20;;;;;;6349504;28;20289;-60
2021/08/14 08:34:39;;;;;;;14.10;13.00;;;37.70;54.20;;;;;;6349541;28;20311;-60
2021/08/14 08:37:44;;;;;;;14.38;13.27;;;38.10;52.80;;;;;;6348513;28;20232;-60
2021/08/14 08:40:48;;;;;;;12.07;11.15;;;37.90;52.70;;;;;;6348486;28;20315;-60
2021/08/14 08:43:51;;;;;;;14.20;13.07;;;39.40;52.40;;;;;;6349032;28;20304;-60
2021/08/14 08:46:55;;;;;;;13.07;12.15;;;42.50;47.30;;;;;;6348891;28;20670;-60
2021/08/14 08:49:59;;;;;;;11.52;10.70;;;44.10;43.40;;;;;;6349211;28;20229;-60
2021/08/14 08:53:04;;;;;;;13.05;11.93;;;46.00;39.70;;;;;;6348848;28;20226;-60
2021/08/14 08:56:07;;;;;;;13.50;12.25;;;46.30;38.00;;;;;;6349312;28;20228;-60
2021/08/14 08:59:11;;;;;;;13.13;11.65;;;46.60;37.00;;;;;;6343688;28;20687;-60
2021/08/14 09:02:22;;;;;;;12.77;11.77;;;46.50;36.50;;;;;;6335655;28;20315;-61
2021/08/14 09:05:26;;;;;;;13.32;12.43;;;45.60;37.40;;;;;;6331559;28;20388;-60
2021/08/14 09:08:30;;;;;;;12.15;11.25;;;44.30;38.80;;;;;;6337085;28;20227;-61
2021/08/14 09:11:33;;;;;;;12.75;11.80;;;43.10;40.00;;;;;;6342965;28;20235;-60
2021/08/14 09:14:48;;;;;;;12.82;12.02;;;41.80;41.80;;;;;;6335779;28;20228;-60
2021/08/14 09:18:00;;;;;;;12.35;11.20;;;40.80;44.10;;;;;;6331799;28;20351;-60
2021/08/14 09:21:04;;;;;;;13.80;12.80;;;39.60;46.50;;;;;;6335225;28;20216;-60
2021/08/14 09:24:10;;;;;;;14.43;12.10;;;38.60;48.00;;;;;;6336714;28;20198;-59
2021/08/14 09:27:15;;;;;;;13.70;12.60;;;38.00;49.70;;;;;;6335783;28;20225;-60
2021/08/14 09:30:18;;;;;;;13.15;12.15;;;37.50;50.80;;;;;;6340072;28;20225;-59
2021/08/14 09:33:24;;;;;;;13.20;12.05;;;37.40;51.50;;;;;;6349912;27;20227;-60
2021/08/14 09:36:27;;;;;;;12.18;11.27;;;37.50;51.80;;;;;;6353260;28;20242;-60
2021/08/14 09:39:33;;;;;;;10.43;9.45;;;37.80;50.80;;;;;;6353101;28;20217;-60
2021/08/14 09:42:51;;;;;;;11.35;10.55;;;37.80;49.30;;;;;;6347361;28;20229;-60
2021/08/14 09:45:55;;;;;;;11.60;10.73;;;37.80;49.80;;;;;;6337718;28;20217;-60
2021/08/14 09:48:58;;;;;;;12.45;11.40;;;37.50;50.20;;;;;;6339922;28;20217;-59
2021/08/14 09:52:19;;;;;;;11.82;10.95;;;37.30;51.10;;;;;;6339992;27;20225;-60
2021/08/14 09:55:26;;;;;;;12.00;11.00;;;36.90;51.90;;;;;;6339301;28;20257;-60
2021/08/14 09:58:31;;;;;;;11.73;10.75;;;36.70;53.00;;;;;;6349367;28;20240;-60
2021/08/14 10:01:38;;;;;;;12.15;10.93;;;36.50;54.20;;;;;;6350605;27;20229;-60
2021/08/14 10:04:41;;;;;;;11.35;10.45;;;35.80;54.90;;;;;;6350540;28;20289;-60
2021/08/14 10:07:44;;;;;;;12.35;11.18;;;35.40;55.40;;;;;;6350488;28;20237;-60
2021/08/14 10:10:49;;;;;;;11.13;10.15;;;35.10;56.50;;;;;;6350332;28;20229;-59
2021/08/14 10:13:52;;;;;;;10.07;9.20;;;35.30;55.80;;;;;;6350868;28;20225;-60
2021/08/14 10:16:56;;;;;;;10.90;9.80;;;35.60;55.00;;;;;;6352185;27;20229;-59
2021/08/14 10:20:00;;;;;;;10.35;9.45;;;35.80;55.00;;;;;;6352291;28;20232;-60
2021/08/14 10:23:05;;;;;;;9.63;8.93;;;36.00;54.10;;;;;;6351838;28;20229;-59
2021/08/14 10:26:12;;;;;;;9.73;8.80;;;36.40;54.30;;;;;;6352605;28;20240;-60
2021/08/14 10:29:35;;;;;;;10.23;9.40;;;36.60;54.00;;;;;;6351675;28;20225;-66
2021/08/14 10:32:50;;;;;;;9.98;9.18;;;36.50;53.60;;;;;;6351923;28;20233;-66
2021/08/14 10:35:54;;;;;;;8.30;7.70;;;36.50;53.10;;;;;;6351815;28;20209;-67
2021/08/14 10:38:58;;;;;;;10.02;8.88;;;36.30;52.70;;;;;;6350845;28;20236;-66
2021/08/14 10:42:05;;;;;;;9.48;8.73;;;36.10;52.90;;;;;;6351545;28;20266;-65
2021/08/14 10:45:15;;;;;;;9.48;8.57;;;36.00;52.60;;;;;;6351924;28;20228;-66
2021/08/14 10:48:53;;;;;;;11.23;8.90;;;35.80;52.30;;;;;;6351603;28;20225;-66
2021/08/14 10:52:32;;;;;;;11.02;9.70;;;35.40;53.90;;;;;;6351754;28;20242;-66
2021/08/14 10:55:35;;;;;;;9.93;8.57;;;35.50;53.70;;;;;;6351862;28;20228;-66
2021/08/14 10:58:40;;;;;;;9.15;8.35;;;35.60;53.00;;;;;;6350782;28;20252;-67
2021/08/14 11:01:43;;;;;;;9.32;8.63;;;35.70;53.00;;;;;;6351536;28;20225;-66
2021/08/14 11:04:56;;;;;;;9.43;8.57;;;35.80;53.30;;;;;;6351295;28;20540;-65
2021/08/14 11:08:01;;;;;;;10.02;9.23;;;36.00;52.80;;;;;;6351186;28;20260;-67
2021/08/14 11:11:37;;;;;;;10.20;9.43;;;36.20;53.20;;;;;;6350989;28;20232;-67
2021/08/14 11:14:43;;;;;;;9.95;8.95;;;36.30;52.50;;;;;;6340701;28;20275;-67
2021/08/14 11:17:48;;;;;;;9.70;8.90;;;35.90;53.60;;;;;;6335960;28;20228;-64
2021/08/14 11:21:07;;;;;;;10.98;9.88;;;36.00;53.60;;;;;;6350061;28;20221;-64
2021/08/14 11:24:11;;;;;;;12.32;9.95;;;36.00;53.80;;;;;;6346738;28;20236;-65
2021/08/14 11:27:21;;;;;;;11.23;9.85;;;36.10;54.30;;;;;;6325597;28;20225;-65
2021/08/14 11:30:28;;;;;;;11.52;10.43;;;36.20;54.20;;;;;;6325323;28;20236;-64
2021/08/14 11:33:32;;;;;;;10.20;9.50;;;36.30;52.60;;;;;;6327383;28;20256;-64
2021/08/14 11:36:35;;;;;;;11.93;9.15;;;36.50;52.90;;;;;;6322315;28;20233;-64
2021/08/14 11:39:39;;;;;;;10.30;9.43;;;36.60;53.30;;;;;;6322551;28;20233;-64
2021/08/14 11:42:42;;;;;;;11.70;10.00;;;36.50;53.60;;;;;;6322842;28;20225;-66
2021/08/14 11:45:47;;;;;;;12.48;11.43;;;36.40;53.60;;;;;;6322684;28;20237;-64
2021/08/14 11:48:51;;;;;;;11.52;10.63;;;36.20;53.50;;;;;;6323062;28;20230;-63
2021/08/14 11:52:02;;;;;;;11.02;9.95;;;36.20;53.60;;;;;;6324583;28;20226;-63
2021/08/14 11:55:07;;;;;;;10.88;10.23;;;36.00;53.70;;;;;;6324987;28;20232;-64
2021/08/14 11:58:10;;;;;;;10.98;10.15;;;36.00;54.40;;;;;;6324562;28;20238;-66
2021/08/14 12:01:14;;;;;;;10.25;9.57;;;35.90;54.60;;;;;;6324349;28;20225;-65
2021/08/14 12:04:20;;;;;;;11.05;10.13;;;36.00;54.40;;;;;;6324596;28;20248;-64
2021/08/14 12:07:24;;;;;;;11.10;10.07;;;36.00;54.40;;;;;;6324277;28;20229;-63
2021/08/14 12:10:27;;;;;;;11.20;10.32;;;36.00;54.20;;;;;;6324743;28;20225;-63
2021/08/14 12:13:31;;;;;;;10.30;9.50;;;35.60;53.70;;;;;;6324212;28;20282;-63
2021/08/14 12:16:42;;;;;;;11.13;10.32;;;35.50;54.00;;;;;;6324367;28;20245;-64
2021/08/14 12:19:50;;;;;;;11.52;10.68;;;35.20;54.40;;;;;;6324283;28;20236;-63
2021/08/14 12:22:53;;;;;;;10.82;10.02;;;35.30;54.60;;;;;;6324366;28;20241;-64
2021/08/14 12:25:59;;;;;;;11.90;10.90;;;35.40;54.40;;;;;;6324109;28;20694;-65
2021/08/14 12:29:04;;;;;;;11.45;10.55;;;35.50;54.40;;;;;;6314134;28;20236;-64
2021/08/14 12:32:11;;;;;;;11.32;10.38;;;35.30;53.60;;;;;;6323789;28;20226;-65
2021/08/14 12:35:20;;;;;;;11.30;10.48;;;35.20;53.80;;;;;;6324217;28;20221;-65
2021/08/14 12:38:23;;;;;;;11.82;10.82;;;35.20;53.50;;;;;;6323939;28;20244;-64
2021/08/14 12:41:35;;;;;;;11.70;10.70;;;35.10;54.80;;;;;;6324137;28;20225;-64
2021/08/14 12:44:42;;;;;;;11.60;10.48;;;34.90;54.40;;;;;;6323898;28;20233;-64
2021/08/14 12:47:47;;;;;;;11.35;10.35;;;34.80;55.00;;;;;;6323439;28;20229;-67
2021/08/14 12:50:51;;;;;;;10.98;10.13;;;34.70;54.70;;;;;;6323741;28;20227;-67
2021/08/14 12:53:55;;;;;;;11.15;10.35;;;34.90;55.50;;;;;;6323134;28;20509;-67
2021/08/14 12:57:03;;;;;;;11.70;10.70;;;35.10;55.70;;;;;;6323389;28;20301;-67
2021/08/14 13:00:07;;;;;;;12.38;11.32;;;34.90;56.00;;;;;;6323960;28;20278;-66
2021/08/14 13:03:17;;;;;;;11.77;10.93;;;35.00;56.20;;;;;;6326023;28;20257;-66
2021/08/14 13:06:20;;;;;;;12.32;11.23;;;35.00;55.90;;;;;;6328464;28;20240;-68
2021/08/14 13:09:23;;;;;;;13.75;12.75;;;34.90;57.00;;;;;;6345222;28;20221;-67
2021/08/14 13:12:26;;;;;;;11.40;10.52;;;34.70;57.40;;;;;;6353981;28;20252;-67
2021/08/14 13:15:30;;;;;;;11.88;10.88;;;34.70;57.30;;;;;;6354059;28;20563;-67
2021/08/14 13:18:34;;;;;;;12.00;11.05;;;34.90;57.00;;;;;;6353711;27;20233;-68
2021/08/14 13:21:38;;;;;;;11.57;10.75;;;35.20;56.60;;;;;;6354061;28;20243;-67
2021/08/14 13:24:42;;;;;;;12.63;11.52;;;35.40;56.50;;;;;;6353838;28;20233;-67
2021/08/14 13:27:45;;;;;;;12.45;11.48;;;35.20;56.20;;;;;;6353486;27;20669;-67
2021/08/14 13:30:48;;;;;;;12.70;11.68;;;34.90;57.40;;;;;;6327176;28;20233;-65
2021/08/14 13:33:54;;;;;;;12.75;11.70;;;34.90;57.70;;;;;;6328006;28;20578;-67
2021/08/14 13:36:58;;;;;;;12.65;11.48;;;34.80;57.50;;;;;;6328370;28;20233;-66
2021/08/14 13:40:01;;;;;;;10.63;9.65;;;34.10;57.70;;;;;;6328181;28;20233;-67
2021/08/14 13:43:04;;;;;;;10.43;9.73;;;34.00;57.10;;;;;;6328230;28;20245;-66
2021/08/14 13:46:07;;;;;;;10.18;9.45;;;34.10;55.70;;;;;;6328036;28;20240;-65
2021/08/14 13:49:12;;;;;;;10.75;9.95;;;34.20;55.10;;;;;;6338202;28;20221;-66
2021/08/14 13:52:15;;;;;;;11.32;10.43;;;34.20;56.10;;;;;;6327860;28;20238;-66
2021/08/14 13:55:19;;;;;;;12.00;10.82;;;34.30;56.90;;;;;;6327835;28;20240;-68
2021/08/14 13:58:23;;;;;;;11.85;10.85;;;34.30;56.50;;;;;;6327160;28;20232;-67
2021/08/14 14:01:26;;;;;;;11.50;10.60;;;34.30;57.00;;;;;;6333134;28;20228;-65
2021/08/14 14:04:30;;;;;;;11.35;10.50;;;34.30;56.60;;;;;;6343927;28;20553;-66
2021/08/14 14:07:34;;;;;;;11.80;10.65;;;34.40;55.70;;;;;;6352769;28;20240;-65
2021/08/14 14:10:38;;;;;;;11.48;10.48;;;34.40;55.20;;;;;;6352808;28;20233;-63
2021/08/14 14:13:41;;;;;;;11.18;10.27;;;34.10;54.70;;;;;;6352078;28;20220;-66
2021/08/14 14:16:44;;;;;;;11.90;11.10;;;33.90;56.10;;;;;;6352377;28;20233;-65
2021/08/14 14:19:49;;;;;;;10.60;9.70;;;34.10;56.50;;;;;;6352638;28;20677;-64
2021/08/14 14:22:52;;;;;;;11.32;10.32;;;34.20;56.50;;;;;;6350784;28;20618;-64
2021/08/14 14:25:57;;;;;;;11.93;11.02;;;34.20;55.10;;;;;;6349688;28;20338;-64
2021/08/14 14:29:00;;;;;;;11.05;10.05;;;33.80;54.50;;;;;;6349797;28;20705;-65
2021/08/14 14:32:05;;;;;;;11.23;10.32;;;33.60;55.90;;;;;;6349755;27;20684;-64
2021/08/14 14:35:12;;;;;;;11.65;10.75;;;33.70;56.30;;;;;;6345466;28;20228;-65
2021/08/14 14:38:15;;;;;;;12.25;11.13;;;33.70;56.40;;;;;;6351234;28;20240;-65
2021/08/14 14:41:18;;;;;;;11.23;10.35;;;33.80;57.00;;;;;;6352101;28;20224;-65
2021/08/14 14:44:21;;;;;;;12.68;11.68;;;33.80;57.20;;;;;;6344745;28;20676;-66
2021/08/14 14:47:24;;;;;;;12.20;11.13;;;33.70;57.80;;;;;;6338318;27;20252;-65
2021/08/14 14:50:29;;;;;;;11.90;11.10;;;33.60;57.70;;;;;;6338071;28;20682;-67
2021/08/14 14:53:32;;;;;;;11.35;10.55;;;33.70;58.20;;;;;;6339106;28;20683;-65
2021/08/14 14:56:35;;;;;;;12.27;11.25;;;33.60;58.10;;;;;;6336578;27;21614;-66
2021/08/14 14:59:38;;;;;;;12.13;11.02;;;33.60;58.40;;;;;;6334704;28;20225;-65
2021/08/14 15:02:42;;;;;;;12.88;11.60;;;33.60;59.10;;;;;;6339184;27;20225;-65
2021/08/14 15:05:46;;;;;;;13.38;12.25;;;33.60;58.90;;;;;;6338538;28;20225;-65
2021/08/14 15:08:50;;;;;;;13.52;12.30;;;33.50;58.80;;;;;;6350635;28;20229;-62
2021/08/14 15:11:53;;;;;;;11.93;10.93;;;33.50;58.90;;;;;;6350914;28;20658;-65
2021/08/14 15:14:58;;;;;;;12.27;11.32;;;33.60;59.10;;;;;;6351070;28;20531;-65
2021/08/14 15:18:02;;;;;;;14.65;13.25;;;33.70;58.80;;;;;;6349595;28;20217;-66
2021/08/14 15:21:07;;;;;;;13.20;12.18;;;33.70;58.90;;;;;;6351062;27;20200;-66
2021/08/14 15:24:10;;;;;;;14.32;13.32;;;33.80;59.30;;;;;;6350532;28;20237;-66
2021/08/14 15:27:13;;;;;;;12.85;11.68;;;33.70;59.70;;;;;;6349926;27;20228;-66
2021/08/14 15:30:16;;;;;;;13.43;12.30;;;33.80;59.90;;;;;;6350486;28;20224;-65
2021/08/14 15:33:20;;;;;;;13.40;12.45;;;33.30;60.80;;;;;;6350454;28;20561;-67
2021/08/14 15:36:25;;;;;;;13.48;12.38;;;33.20;61.70;;;;;;6350177;28;20221;-66
2021/08/14 15:39:28;;;;;;;12.75;11.57;;;33.30;62.00;;;;;;6345781;27;20723;-66